sensor_id;sensor_type;location;lat;lon;timestamp;P1;durP1;ratioP1;P2;durP2;ratioP2
39890;SDS011;25564;53.312;9.790;2023-09-18T00:00:09;5.93;;;4.32;;
39890;SDS011;25564;53.312;9.790;2023-09-18T00:02:43;6.53;;;4.18;;
39890;SDS011;25564;53.312;9.790;2023-09-18T00:05:15;5.57;;;3.63;;
39890;SDS011;25564;53.312;9.790;2023-09-18T00:07:47;5.30;;;3.83;;
39890;SDS011;25564;53.312;9.790;2023-09-18T00:10:18;5.35;;;3.40;;
39890;SDS011;25564;53.312;9.790;2023-09-18T00:12:49;8.93;;;4.00;;
39890;SDS011;25564;53.312;9.790;2023-09-18T00:15:21;5.65;;;4.38;;
39890;SDS011;25564;53.312;9.790;2023-09-18T00:17:53;5.57;;;3.90;;
39890;SDS011;25564;53.312;9.790;2023-09-18T00:20:24;5.25;;;3.35;;
39890;SDS011;25564;53.312;9.790;2023-09-18T00:22:58;6.00;;;3.70;;
39890;SDS011;25564;53.312;9.790;2023-09-18T00:25:29;5.15;;;3.60;;
39890;SDS011;25564;53.312;9.790;2023-09-18T00:28:02;6.80;;;3.83;;
39890;SDS011;25564;53.312;9.790;2023-09-18T00:30:34;5.22;;;3.45;;
39890;SDS011;25564;53.312;9.790;2023-09-18T00:33:05;6.18;;;3.47;;
39890;SDS011;25564;53.312;9.790;2023-09-18T00:35:37;8.00;;;3.63;;
39890;SDS011;25564;53.312;9.790;2023-09-18T00:38:09;6.07;;;4.20;;
39890;SDS011;25564;53.312;9.790;2023-09-18T00:40:40;8.45;;;3.90;;
39890;SDS011;25564;53.312;9.790;2023-09-18T00:43:12;6.55;;;3.67;;
39890;SDS011;25564;53.312;9.790;2023-09-18T00:45:44;6.53;;;4.03;;
39890;SDS011;25564;53.312;9.790;2023-09-18T00:48:17;6.50;;;3.83;;
39890;SDS011;25564;53.312;9.790;2023-09-18T00:50:49;5.60;;;3.88;;
39890;SDS011;25564;53.312;9.790;2023-09-18T00:53:21;6.63;;;4.07;;
39890;SDS011;25564;53.312;9.790;2023-09-18T00:55:55;6.47;;;4.18;;
39890;SDS011;25564;53.312;9.790;2023-09-18T00:58:29;7.68;;;4.47;;
39890;SDS011;25564;53.312;9.790;2023-09-18T01:01:01;6.35;;;4.22;;
39890;SDS011;25564;53.312;9.790;2023-09-18T01:03:33;6.40;;;4.43;;
39890;SDS011;25564;53.312;9.790;2023-09-18T01:06:04;7.00;;;4.40;;
39890;SDS011;25564;53.312;9.790;2023-09-18T01:08:36;6.35;;;3.75;;
39890;SDS011;25564;53.312;9.790;2023-09-18T01:11:10;4.68;;;3.78;;
39890;SDS011;25564;53.312;9.790;2023-09-18T01:14:14;8.20;;;4.03;;
39890;SDS011;25564;53.312;9.790;2023-09-18T01:16:59;6.00;;;3.67;;
39890;SDS011;25564;53.312;9.790;2023-09-18T01:22:08;5.57;;;4.10;;
39890;SDS011;25564;53.312;9.790;2023-09-18T01:24:41;6.70;;;3.97;;
39890;SDS011;25564;53.312;9.790;2023-09-18T01:27:16;5.53;;;3.88;;
39890;SDS011;25564;53.312;9.790;2023-09-18T01:29:49;7.65;;;4.47;;
39890;SDS011;25564;53.312;9.790;2023-09-18T01:32:21;7.70;;;4.90;;
39890;SDS011;25564;53.312;9.790;2023-09-18T01:34:59;7.75;;;4.32;;
39890;SDS011;25564;53.312;9.790;2023-09-18T01:37:32;5.07;;;4.00;;
39890;SDS011;25564;53.312;9.790;2023-09-18T01:40:06;6.07;;;4.07;;
39890;SDS011;25564;53.312;9.790;2023-09-18T01:42:38;6.32;;;4.45;;
39890;SDS011;25564;53.312;9.790;2023-09-18T01:45:10;7.20;;;4.28;;
39890;SDS011;25564;53.312;9.790;2023-09-18T01:47:42;6.13;;;3.80;;
39890;SDS011;25564;53.312;9.790;2023-09-18T01:50:14;5.60;;;4.25;;
39890;SDS011;25564;53.312;9.790;2023-09-18T01:52:46;6.57;;;4.97;;
39890;SDS011;25564;53.312;9.790;2023-09-18T01:55:17;7.18;;;4.35;;
39890;SDS011;25564;53.312;9.790;2023-09-18T01:57:49;5.93;;;4.00;;
39890;SDS011;25564;53.312;9.790;2023-09-18T02:00:20;7.68;;;4.63;;
39890;SDS011;25564;53.312;9.790;2023-09-18T02:02:52;8.25;;;4.65;;
39890;SDS011;25564;53.312;9.790;2023-09-18T02:05:44;7.75;;;4.32;;
39890;SDS011;25564;53.312;9.790;2023-09-18T02:08:16;7.10;;;4.65;;
39890;SDS011;25564;53.312;9.790;2023-09-18T02:10:47;6.55;;;4.35;;
39890;SDS011;25564;53.312;9.790;2023-09-18T02:13:19;7.82;;;5.00;;
39890;SDS011;25564;53.312;9.790;2023-09-18T02:15:51;6.60;;;4.55;;
39890;SDS011;25564;53.312;9.790;2023-09-18T02:18:24;7.13;;;4.35;;
39890;SDS011;25564;53.312;9.790;2023-09-18T02:20:55;6.68;;;4.45;;
39890;SDS011;25564;53.312;9.790;2023-09-18T02:23:27;7.65;;;5.05;;
39890;SDS011;25564;53.312;9.790;2023-09-18T02:25:58;8.20;;;4.93;;
39890;SDS011;25564;53.312;9.790;2023-09-18T02:28:30;6.90;;;4.88;;
39890;SDS011;25564;53.312;9.790;2023-09-18T02:31:02;10.38;;;4.68;;
39890;SDS011;25564;53.312;9.790;2023-09-18T02:33:33;6.57;;;4.80;;
39890;SDS011;25564;53.312;9.790;2023-09-18T02:36:05;7.68;;;4.88;;
39890;SDS011;25564;53.312;9.790;2023-09-18T02:38:37;7.95;;;5.60;;
39890;SDS011;25564;53.312;9.790;2023-09-18T02:41:09;6.82;;;5.00;;
39890;SDS011;25564;53.312;9.790;2023-09-18T02:43:40;6.97;;;4.95;;
39890;SDS011;25564;53.312;9.790;2023-09-18T02:46:12;7.22;;;4.68;;
39890;SDS011;25564;53.312;9.790;2023-09-18T02:48:43;7.05;;;4.00;;
39890;SDS011;25564;53.312;9.790;2023-09-18T02:51:15;8.23;;;4.80;;
39890;SDS011;25564;53.312;9.790;2023-09-18T02:53:46;5.57;;;4.10;;
39890;SDS011;25564;53.312;9.790;2023-09-18T02:56:18;7.90;;;4.90;;
39890;SDS011;25564;53.312;9.790;2023-09-18T02:58:49;6.70;;;4.68;;
39890;SDS011;25564;53.312;9.790;2023-09-18T03:01:21;7.88;;;4.68;;
39890;SDS011;25564;53.312;9.790;2023-09-18T03:03:53;7.90;;;5.30;;
39890;SDS011;25564;53.312;9.790;2023-09-18T03:06:25;7.35;;;4.40;;
39890;SDS011;25564;53.312;9.790;2023-09-18T03:08:56;10.60;;;5.25;;
39890;SDS011;25564;53.312;9.790;2023-09-18T03:11:28;7.03;;;4.20;;
39890;SDS011;25564;53.312;9.790;2023-09-18T03:14:00;6.40;;;4.63;;
39890;SDS011;25564;53.312;9.790;2023-09-18T03:16:32;7.97;;;4.60;;
39890;SDS011;25564;53.312;9.790;2023-09-18T03:19:04;6.82;;;4.53;;
39890;SDS011;25564;53.312;9.790;2023-09-18T03:21:36;7.25;;;4.93;;
39890;SDS011;25564;53.312;9.790;2023-09-18T03:24:07;6.20;;;4.32;;
39890;SDS011;25564;53.312;9.790;2023-09-18T03:26:39;7.32;;;4.88;;
39890;SDS011;25564;53.312;9.790;2023-09-18T03:29:11;7.38;;;4.35;;
39890;SDS011;25564;53.312;9.790;2023-09-18T03:31:42;5.95;;;4.18;;
39890;SDS011;25564;53.312;9.790;2023-09-18T03:34:14;8.35;;;4.93;;
39890;SDS011;25564;53.312;9.790;2023-09-18T03:36:45;7.07;;;4.97;;
39890;SDS011;25564;53.312;9.790;2023-09-18T03:39:17;6.50;;;4.83;;
39890;SDS011;25564;53.312;9.790;2023-09-18T03:41:48;9.90;;;4.97;;
39890;SDS011;25564;53.312;9.790;2023-09-18T03:44:20;7.72;;;4.93;;
39890;SDS011;25564;53.312;9.790;2023-09-18T03:46:52;11.10;;;4.85;;
39890;SDS011;25564;53.312;9.790;2023-09-18T03:49:23;6.93;;;4.53;;
39890;SDS011;25564;53.312;9.790;2023-09-18T03:51:55;6.65;;;4.07;;
39890;SDS011;25564;53.312;9.790;2023-09-18T03:54:27;5.63;;;4.03;;
39890;SDS011;25564;53.312;9.790;2023-09-18T03:56:58;9.55;;;4.93;;
39890;SDS011;25564;53.312;9.790;2023-09-18T03:59:30;5.40;;;4.00;;
39890;SDS011;25564;53.312;9.790;2023-09-18T04:02:01;6.57;;;4.07;;
39890;SDS011;25564;53.312;9.790;2023-09-18T04:04:34;7.50;;;4.10;;
39890;SDS011;25564;53.312;9.790;2023-09-18T04:07:06;5.10;;;3.55;;
39890;SDS011;25564;53.312;9.790;2023-09-18T04:09:37;5.38;;;3.70;;
39890;SDS011;25564;53.312;9.790;2023-09-18T04:12:10;4.63;;;3.47;;
39890;SDS011;25564;53.312;9.790;2023-09-18T04:14:42;5.53;;;3.85;;
39890;SDS011;25564;53.312;9.790;2023-09-18T04:17:14;7.35;;;3.63;;
39890;SDS011;25564;53.312;9.790;2023-09-18T04:19:46;7.50;;;4.25;;
39890;SDS011;25564;53.312;9.790;2023-09-18T04:22:18;6.68;;;3.00;;
39890;SDS011;25564;53.312;9.790;2023-09-18T04:24:49;6.53;;;4.20;;
39890;SDS011;25564;53.312;9.790;2023-09-18T04:27:20;4.93;;;3.50;;
39890;SDS011;25564;53.312;9.790;2023-09-18T04:29:52;7.75;;;3.08;;
39890;SDS011;25564;53.312;9.790;2023-09-18T04:32:23;8.63;;;4.25;;
39890;SDS011;25564;53.312;9.790;2023-09-18T04:34:56;5.93;;;3.85;;
39890;SDS011;25564;53.312;9.790;2023-09-18T04:37:27;7.35;;;3.88;;
39890;SDS011;25564;53.312;9.790;2023-09-18T04:39:59;6.57;;;3.75;;
39890;SDS011;25564;53.312;9.790;2023-09-18T04:42:30;7.13;;;3.63;;
39890;SDS011;25564;53.312;9.790;2023-09-18T04:45:02;7.78;;;4.30;;
39890;SDS011;25564;53.312;9.790;2023-09-18T04:47:34;5.65;;;3.80;;
39890;SDS011;25564;53.312;9.790;2023-09-18T04:50:05;7.13;;;4.47;;
39890;SDS011;25564;53.312;9.790;2023-09-18T04:52:42;5.68;;;3.83;;
39890;SDS011;25564;53.312;9.790;2023-09-18T04:55:14;7.38;;;3.85;;
39890;SDS011;25564;53.312;9.790;2023-09-18T04:57:46;5.60;;;4.20;;
39890;SDS011;25564;53.312;9.790;2023-09-18T05:00:18;7.32;;;4.35;;
39890;SDS011;25564;53.312;9.790;2023-09-18T05:02:49;5.05;;;3.55;;
39890;SDS011;25564;53.312;9.790;2023-09-18T05:05:21;5.40;;;3.80;;
39890;SDS011;25564;53.312;9.790;2023-09-18T05:07:53;6.45;;;3.80;;
39890;SDS011;25564;53.312;9.790;2023-09-18T05:10:24;5.75;;;4.05;;
39890;SDS011;25564;53.312;9.790;2023-09-18T05:12:56;5.45;;;3.75;;
39890;SDS011;25564;53.312;9.790;2023-09-18T05:15:31;5.32;;;3.70;;
39890;SDS011;25564;53.312;9.790;2023-09-18T05:18:02;8.35;;;4.28;;
39890;SDS011;25564;53.312;9.790;2023-09-18T05:20:35;6.45;;;4.15;;
39890;SDS011;25564;53.312;9.790;2023-09-18T05:23:07;7.68;;;3.95;;
39890;SDS011;25564;53.312;9.790;2023-09-18T05:25:39;6.03;;;4.05;;
39890;SDS011;25564;53.312;9.790;2023-09-18T05:28:13;6.68;;;4.25;;
39890;SDS011;25564;53.312;9.790;2023-09-18T05:30:44;6.45;;;4.03;;
39890;SDS011;25564;53.312;9.790;2023-09-18T05:33:16;5.80;;;3.63;;
39890;SDS011;25564;53.312;9.790;2023-09-18T05:35:47;8.35;;;4.38;;
39890;SDS011;25564;53.312;9.790;2023-09-18T05:38:20;5.80;;;3.83;;
39890;SDS011;25564;53.312;9.790;2023-09-18T05:40:51;7.07;;;4.25;;
39890;SDS011;25564;53.312;9.790;2023-09-18T05:43:23;9.45;;;4.15;;
39890;SDS011;25564;53.312;9.790;2023-09-18T05:45:54;8.32;;;4.15;;
39890;SDS011;25564;53.312;9.790;2023-09-18T05:48:26;5.80;;;3.72;;
39890;SDS011;25564;53.312;9.790;2023-09-18T05:50:57;6.00;;;3.78;;
39890;SDS011;25564;53.312;9.790;2023-09-18T05:53:29;7.63;;;4.38;;
39890;SDS011;25564;53.312;9.790;2023-09-18T05:56:02;6.40;;;3.95;;
39890;SDS011;25564;53.312;9.790;2023-09-18T05:58:35;6.35;;;4.00;;
39890;SDS011;25564;53.312;9.790;2023-09-18T06:01:07;6.30;;;4.07;;
39890;SDS011;25564;53.312;9.790;2023-09-18T06:03:39;6.07;;;3.88;;
39890;SDS011;25564;53.312;9.790;2023-09-18T06:06:10;9.07;;;4.05;;
39890;SDS011;25564;53.312;9.790;2023-09-18T06:08:42;5.50;;;3.47;;
39890;SDS011;25564;53.312;9.790;2023-09-18T06:11:13;5.50;;;3.63;;
39890;SDS011;25564;53.312;9.790;2023-09-18T06:13:45;6.88;;;3.83;;
39890;SDS011;25564;53.312;9.790;2023-09-18T06:16:17;7.35;;;3.80;;
39890;SDS011;25564;53.312;9.790;2023-09-18T06:18:49;5.03;;;3.42;;
39890;SDS011;25564;53.312;9.790;2023-09-18T06:21:21;6.20;;;3.65;;
39890;SDS011;25564;53.312;9.790;2023-09-18T06:23:53;5.10;;;3.55;;
39890;SDS011;25564;53.312;9.790;2023-09-18T06:26:25;5.75;;;3.72;;
39890;SDS011;25564;53.312;9.790;2023-09-18T06:28:56;5.97;;;3.95;;
39890;SDS011;25564;53.312;9.790;2023-09-18T06:31:28;6.90;;;3.22;;
39890;SDS011;25564;53.312;9.790;2023-09-18T06:34:00;5.80;;;3.80;;
39890;SDS011;25564;53.312;9.790;2023-09-18T06:36:31;9.77;;;3.40;;
39890;SDS011;25564;53.312;9.790;2023-09-18T06:39:03;4.70;;;3.38;;
39890;SDS011;25564;53.312;9.790;2023-09-18T06:41:37;4.95;;;3.38;;
39890;SDS011;25564;53.312;9.790;2023-09-18T06:44:08;6.90;;;3.80;;
39890;SDS011;25564;53.312;9.790;2023-09-18T06:46:40;6.15;;;3.35;;
39890;SDS011;25564;53.312;9.790;2023-09-18T06:49:12;7.82;;;3.85;;
39890;SDS011;25564;53.312;9.790;2023-09-18T06:51:43;7.18;;;3.50;;
39890;SDS011;25564;53.312;9.790;2023-09-18T06:54:15;7.80;;;3.45;;
39890;SDS011;25564;53.312;9.790;2023-09-18T06:56:47;5.65;;;3.45;;
39890;SDS011;25564;53.312;9.790;2023-09-18T06:59:19;8.07;;;3.38;;
39890;SDS011;25564;53.312;9.790;2023-09-18T07:01:50;5.45;;;3.42;;
39890;SDS011;25564;53.312;9.790;2023-09-18T07:04:21;8.60;;;3.42;;
39890;SDS011;25564;53.312;9.790;2023-09-18T07:06:53;4.75;;;3.33;;
39890;SDS011;25564;53.312;9.790;2023-09-18T07:09:25;5.32;;;3.03;;
39890;SDS011;25564;53.312;9.790;2023-09-18T07:11:57;5.82;;;3.38;;
39890;SDS011;25564;53.312;9.790;2023-09-18T07:14:28;4.80;;;3.15;;
39890;SDS011;25564;53.312;9.790;2023-09-18T07:17:01;5.18;;;3.28;;
39890;SDS011;25564;53.312;9.790;2023-09-18T07:19:33;5.70;;;3.47;;
39890;SDS011;25564;53.312;9.790;2023-09-18T07:22:05;6.72;;;3.65;;
39890;SDS011;25564;53.312;9.790;2023-09-18T07:24:36;4.32;;;3.28;;
39890;SDS011;25564;53.312;9.790;2023-09-18T07:27:12;4.30;;;3.40;;
39890;SDS011;25564;53.312;9.790;2023-09-18T07:29:44;5.05;;;3.50;;
39890;SDS011;25564;53.312;9.790;2023-09-18T07:32:15;5.60;;;3.53;;
39890;SDS011;25564;53.312;9.790;2023-09-18T07:35:07;4.47;;;3.08;;
39890;SDS011;25564;53.312;9.790;2023-09-18T07:37:39;7.25;;;3.25;;
39890;SDS011;25564;53.312;9.790;2023-09-18T07:40:10;5.13;;;3.72;;
39890;SDS011;25564;53.312;9.790;2023-09-18T07:42:42;9.48;;;4.40;;
39890;SDS011;25564;53.312;9.790;2023-09-18T07:45:15;5.18;;;3.22;;
39890;SDS011;25564;53.312;9.790;2023-09-18T07:47:47;5.47;;;3.50;;
39890;SDS011;25564;53.312;9.790;2023-09-18T07:50:18;3.63;;;3.00;;
39890;SDS011;25564;53.312;9.790;2023-09-18T07:52:50;4.63;;;3.20;;
39890;SDS011;25564;53.312;9.790;2023-09-18T07:55:22;7.47;;;3.60;;
39890;SDS011;25564;53.312;9.790;2023-09-18T07:57:53;5.07;;;3.28;;
39890;SDS011;25564;53.312;9.790;2023-09-18T08:00:25;4.75;;;3.53;;
39890;SDS011;25564;53.312;9.790;2023-09-18T08:02:57;4.90;;;3.70;;
39890;SDS011;25564;53.312;9.790;2023-09-18T08:05:30;6.00;;;3.92;;
39890;SDS011;25564;53.312;9.790;2023-09-18T08:08:03;5.20;;;3.60;;
39890;SDS011;25564;53.312;9.790;2023-09-18T08:10:36;5.65;;;3.08;;
39890;SDS011;25564;53.312;9.790;2023-09-18T08:13:08;5.68;;;3.42;;
39890;SDS011;25564;53.312;9.790;2023-09-18T08:15:40;4.13;;;3.05;;
39890;SDS011;25564;53.312;9.790;2023-09-18T08:18:12;4.65;;;3.00;;
39890;SDS011;25564;53.312;9.790;2023-09-18T08:20:46;6.25;;;3.63;;
39890;SDS011;25564;53.312;9.790;2023-09-18T08:23:18;4.80;;;3.15;;
39890;SDS011;25564;53.312;9.790;2023-09-18T08:25:50;4.22;;;2.75;;
39890;SDS011;25564;53.312;9.790;2023-09-18T08:28:28;5.60;;;3.28;;
39890;SDS011;25564;53.312;9.790;2023-09-18T08:31:00;3.88;;;2.80;;
39890;SDS011;25564;53.312;9.790;2023-09-18T08:33:32;6.55;;;2.78;;
39890;SDS011;25564;53.312;9.790;2023-09-18T08:36:06;5.90;;;3.08;;
39890;SDS011;25564;53.312;9.790;2023-09-18T08:38:38;3.90;;;2.55;;
39890;SDS011;25564;53.312;9.790;2023-09-18T08:41:10;4.72;;;2.80;;
39890;SDS011;25564;53.312;9.790;2023-09-18T08:43:42;9.23;;;3.40;;
39890;SDS011;25564;53.312;9.790;2023-09-18T08:46:14;6.38;;;3.15;;
39890;SDS011;25564;53.312;9.790;2023-09-18T08:48:46;4.40;;;2.78;;
39890;SDS011;25564;53.312;9.790;2023-09-18T08:51:20;4.97;;;2.90;;
39890;SDS011;25564;53.312;9.790;2023-09-18T08:53:53;4.07;;;2.90;;
39890;SDS011;25564;53.312;9.790;2023-09-18T08:56:25;5.32;;;3.00;;
39890;SDS011;25564;53.312;9.790;2023-09-18T08:58:59;5.70;;;3.60;;
39890;SDS011;25564;53.312;9.790;2023-09-18T09:01:31;3.38;;;2.60;;
39890;SDS011;25564;53.312;9.790;2023-09-18T09:04:03;4.22;;;2.90;;
39890;SDS011;25564;53.312;9.790;2023-09-18T09:06:35;6.10;;;3.47;;
39890;SDS011;25564;53.312;9.790;2023-09-18T09:09:07;5.75;;;3.10;;
39890;SDS011;25564;53.312;9.790;2023-09-18T09:11:47;5.32;;;3.10;;
39890;SDS011;25564;53.312;9.790;2023-09-18T09:14:20;4.72;;;2.80;;
39890;SDS011;25564;53.312;9.790;2023-09-18T09:16:59;4.72;;;2.72;;
39890;SDS011;25564;53.312;9.790;2023-09-18T09:19:32;8.05;;;3.30;;
39890;SDS011;25564;53.312;9.790;2023-09-18T09:22:10;6.13;;;3.30;;
39890;SDS011;25564;53.312;9.790;2023-09-18T09:24:51;4.53;;;2.83;;
39890;SDS011;25564;53.312;9.790;2023-09-18T09:27:22;5.00;;;2.63;;
39890;SDS011;25564;53.312;9.790;2023-09-18T09:30:00;4.40;;;2.92;;
39890;SDS011;25564;53.312;9.790;2023-09-18T09:32:32;4.80;;;2.63;;
39890;SDS011;25564;53.312;9.790;2023-09-18T09:35:07;8.33;;;2.83;;
39890;SDS011;25564;53.312;9.790;2023-09-18T09:37:39;6.13;;;2.95;;
39890;SDS011;25564;53.312;9.790;2023-09-18T09:40:11;4.93;;;2.90;;
39890;SDS011;25564;53.312;9.790;2023-09-18T09:42:45;4.65;;;2.65;;
39890;SDS011;25564;53.312;9.790;2023-09-18T09:45:17;4.65;;;2.67;;
39890;SDS011;25564;53.312;9.790;2023-09-18T09:47:52;5.93;;;3.00;;
39890;SDS011;25564;53.312;9.790;2023-09-18T09:50:25;5.47;;;3.13;;
39890;SDS011;25564;53.312;9.790;2023-09-18T09:52:57;12.45;;;2.72;;
39890;SDS011;25564;53.312;9.790;2023-09-18T09:55:31;4.45;;;2.58;;
39890;SDS011;25564;53.312;9.790;2023-09-18T09:58:05;5.93;;;2.85;;
39890;SDS011;25564;53.312;9.790;2023-09-18T10:00:39;8.20;;;3.20;;
39890;SDS011;25564;53.312;9.790;2023-09-18T10:03:18;5.93;;;3.00;;
39890;SDS011;25564;53.312;9.790;2023-09-18T10:05:51;3.85;;;2.70;;
39890;SDS011;25564;53.312;9.790;2023-09-18T10:08:26;4.82;;;2.83;;
39890;SDS011;25564;53.312;9.790;2023-09-18T10:11:01;6.65;;;2.30;;
39890;SDS011;25564;53.312;9.790;2023-09-18T10:13:51;6.82;;;2.85;;
39890;SDS011;25564;53.312;9.790;2023-09-18T10:16:26;5.78;;;3.13;;
39890;SDS011;25564;53.312;9.790;2023-09-18T10:22:01;4.75;;;2.60;;
39890;SDS011;25564;53.312;9.790;2023-09-18T10:24:42;5.07;;;3.08;;
39890;SDS011;25564;53.312;9.790;2023-09-18T10:27:18;4.68;;;2.67;;
39890;SDS011;25564;53.312;9.790;2023-09-18T10:29:53;4.70;;;2.60;;
39890;SDS011;25564;53.312;9.790;2023-09-18T10:32:25;4.80;;;2.90;;
39890;SDS011;25564;53.312;9.790;2023-09-18T10:34:59;3.80;;;2.90;;
39890;SDS011;25564;53.312;9.790;2023-09-18T10:37:31;11.18;;;3.50;;
39890;SDS011;25564;53.312;9.790;2023-09-18T10:40:04;6.28;;;2.92;;
39890;SDS011;25564;53.312;9.790;2023-09-18T10:42:40;8.02;;;2.90;;
39890;SDS011;25564;53.312;9.790;2023-09-18T10:45:12;5.32;;;2.83;;
39890;SDS011;25564;53.312;9.790;2023-09-18T10:47:46;3.78;;;2.22;;
39890;SDS011;25564;53.312;9.790;2023-09-18T10:50:23;3.97;;;2.47;;
39890;SDS011;25564;53.312;9.790;2023-09-18T10:52:57;8.27;;;3.00;;
39890;SDS011;25564;53.312;9.790;2023-09-18T10:55:29;5.93;;;2.90;;
39890;SDS011;25564;53.312;9.790;2023-09-18T10:58:02;7.70;;;2.60;;
39890;SDS011;25564;53.312;9.790;2023-09-18T11:00:34;11.10;;;2.90;;
39890;SDS011;25564;53.312;9.790;2023-09-18T11:03:15;4.10;;;2.40;;
39890;SDS011;25564;53.312;9.790;2023-09-18T11:06:01;3.92;;;2.10;;
39890;SDS011;25564;53.312;9.790;2023-09-18T11:08:44;6.13;;;2.35;;
39890;SDS011;25564;53.312;9.790;2023-09-18T11:11:18;4.75;;;2.00;;
39890;SDS011;25564;53.312;9.790;2023-09-18T11:13:52;6.43;;;2.45;;
39890;SDS011;25564;53.312;9.790;2023-09-18T11:16:33;3.17;;;1.90;;
39890;SDS011;25564;53.312;9.790;2023-09-18T11:19:11;7.28;;;2.40;;
39890;SDS011;25564;53.312;9.790;2023-09-18T11:21:48;3.55;;;1.77;;
39890;SDS011;25564;53.312;9.790;2023-09-18T11:24:38;6.68;;;2.40;;
39890;SDS011;25564;53.312;9.790;2023-09-18T11:27:11;5.82;;;2.00;;
39890;SDS011;25564;53.312;9.790;2023-09-18T11:29:43;3.45;;;2.22;;
39890;SDS011;25564;53.312;9.790;2023-09-18T11:35:17;5.20;;;1.92;;
39890;SDS011;25564;53.312;9.790;2023-09-18T11:38:05;8.60;;;2.85;;
39890;SDS011;25564;53.312;9.790;2023-09-18T11:40:40;3.15;;;1.92;;
39890;SDS011;25564;53.312;9.790;2023-09-18T11:43:19;7.55;;;2.10;;
39890;SDS011;25564;53.312;9.790;2023-09-18T11:45:56;4.70;;;1.70;;
39890;SDS011;25564;53.312;9.790;2023-09-18T11:48:30;9.95;;;2.58;;
39890;SDS011;25564;53.312;9.790;2023-09-18T11:51:06;3.72;;;1.60;;
39890;SDS011;25564;53.312;9.790;2023-09-18T11:53:42;4.32;;;1.80;;
39890;SDS011;25564;53.312;9.790;2023-09-18T11:56:15;6.80;;;1.90;;
39890;SDS011;25564;53.312;9.790;2023-09-18T11:58:50;6.63;;;2.00;;
39890;SDS011;25564;53.312;9.790;2023-09-18T12:01:23;8.45;;;1.90;;
39890;SDS011;25564;53.312;9.790;2023-09-18T12:03:59;5.82;;;1.95;;
39890;SDS011;25564;53.312;9.790;2023-09-18T12:06:32;5.40;;;2.10;;
39890;SDS011;25564;53.312;9.790;2023-09-18T12:09:04;6.28;;;1.70;;
39890;SDS011;25564;53.312;9.790;2023-09-18T12:11:36;5.60;;;1.17;;
39890;SDS011;25564;53.312;9.790;2023-09-18T12:14:13;4.03;;;1.60;;
39890;SDS011;25564;53.312;9.790;2023-09-18T12:16:46;5.00;;;1.75;;
39890;SDS011;25564;53.312;9.790;2023-09-18T12:19:21;7.00;;;1.80;;
39890;SDS011;25564;53.312;9.790;2023-09-18T12:21:53;4.63;;;1.70;;
39890;SDS011;25564;53.312;9.790;2023-09-18T12:24:25;5.10;;;1.92;;
39890;SDS011;25564;53.312;9.790;2023-09-18T12:26:57;3.20;;;1.48;;
39890;SDS011;25564;53.312;9.790;2023-09-18T12:29:28;4.18;;;1.60;;
39890;SDS011;25564;53.312;9.790;2023-09-18T12:32:03;3.85;;;1.52;;
39890;SDS011;25564;53.312;9.790;2023-09-18T12:34:43;9.52;;;1.88;;
39890;SDS011;25564;53.312;9.790;2023-09-18T12:37:14;3.22;;;1.77;;
39890;SDS011;25564;53.312;9.790;2023-09-18T12:39:46;4.07;;;1.58;;
39890;SDS011;25564;53.312;9.790;2023-09-18T12:42:20;5.75;;;1.73;;
39890;SDS011;25564;53.312;9.790;2023-09-18T12:44:52;4.82;;;1.88;;
39890;SDS011;25564;53.312;9.790;2023-09-18T12:47:25;3.85;;;1.20;;
39890;SDS011;25564;53.312;9.790;2023-09-18T12:50:01;4.38;;;1.50;;
39890;SDS011;25564;53.312;9.790;2023-09-18T12:52:38;2.95;;;1.50;;
39890;SDS011;25564;53.312;9.790;2023-09-18T12:55:25;5.75;;;1.90;;
39890;SDS011;25564;53.312;9.790;2023-09-18T12:57:58;2.42;;;1.20;;
39890;SDS011;25564;53.312;9.790;2023-09-18T13:00:31;4.25;;;1.58;;
39890;SDS011;25564;53.312;9.790;2023-09-18T13:03:03;7.57;;;1.70;;
39890;SDS011;25564;53.312;9.790;2023-09-18T13:05:35;2.33;;;1.40;;
39890;SDS011;25564;53.312;9.790;2023-09-18T13:08:07;5.65;;;1.95;;
39890;SDS011;25564;53.312;9.790;2023-09-18T13:10:47;3.47;;;1.83;;
39890;SDS011;25564;53.312;9.790;2023-09-18T13:13:22;4.82;;;1.80;;
39890;SDS011;25564;53.312;9.790;2023-09-18T13:15:58;3.20;;;1.60;;
39890;SDS011;25564;53.312;9.790;2023-09-18T13:18:31;3.88;;;1.92;;
39890;SDS011;25564;53.312;9.790;2023-09-18T13:21:10;4.28;;;2.13;;
39890;SDS011;25564;53.312;9.790;2023-09-18T13:23:43;3.55;;;1.63;;
39890;SDS011;25564;53.312;9.790;2023-09-18T13:26:15;5.50;;;1.40;;
39890;SDS011;25564;53.312;9.790;2023-09-18T13:28:47;3.67;;;1.73;;
39890;SDS011;25564;53.312;9.790;2023-09-18T13:31:20;7.22;;;1.73;;
39890;SDS011;25564;53.312;9.790;2023-09-18T13:33:51;2.33;;;1.42;;
39890;SDS011;25564;53.312;9.790;2023-09-18T13:36:24;4.72;;;1.70;;
39890;SDS011;25564;53.312;9.790;2023-09-18T13:38:56;4.75;;;1.90;;
39890;SDS011;25564;53.312;9.790;2023-09-18T13:41:27;4.60;;;2.03;;
39890;SDS011;25564;53.312;9.790;2023-09-18T13:43:59;4.45;;;1.40;;
39890;SDS011;25564;53.312;9.790;2023-09-18T13:46:30;2.35;;;1.40;;
39890;SDS011;25564;53.312;9.790;2023-09-18T13:49:05;3.30;;;1.60;;
39890;SDS011;25564;53.312;9.790;2023-09-18T13:51:37;3.95;;;1.48;;
39890;SDS011;25564;53.312;9.790;2023-09-18T13:54:09;4.25;;;1.48;;
39890;SDS011;25564;53.312;9.790;2023-09-18T13:56:40;5.18;;;1.80;;
39890;SDS011;25564;53.312;9.790;2023-09-18T13:59:12;3.58;;;2.00;;
39890;SDS011;25564;53.312;9.790;2023-09-18T14:01:44;5.55;;;1.70;;
39890;SDS011;25564;53.312;9.790;2023-09-18T14:04:15;4.35;;;1.90;;
39890;SDS011;25564;53.312;9.790;2023-09-18T14:06:47;4.20;;;1.80;;
39890;SDS011;25564;53.312;9.790;2023-09-18T14:09:18;2.55;;;1.48;;
39890;SDS011;25564;53.312;9.790;2023-09-18T14:11:51;3.78;;;1.70;;
39890;SDS011;25564;53.312;9.790;2023-09-18T14:14:22;3.30;;;1.42;;
39890;SDS011;25564;53.312;9.790;2023-09-18T14:16:54;3.00;;;1.55;;
39890;SDS011;25564;53.312;9.790;2023-09-18T14:19:28;4.70;;;1.95;;
39890;SDS011;25564;53.312;9.790;2023-09-18T14:22:00;4.05;;;1.58;;
39890;SDS011;25564;53.312;9.790;2023-09-18T14:24:35;4.77;;;1.20;;
39890;SDS011;25564;53.312;9.790;2023-09-18T14:27:06;6.50;;;1.85;;
39890;SDS011;25564;53.312;9.790;2023-09-18T14:29:39;1.80;;;1.13;;
39890;SDS011;25564;53.312;9.790;2023-09-18T14:32:10;4.05;;;1.45;;
39890;SDS011;25564;53.312;9.790;2023-09-18T14:34:44;3.88;;;1.70;;
39890;SDS011;25564;53.312;9.790;2023-09-18T14:37:17;2.83;;;1.40;;
39890;SDS011;25564;53.312;9.790;2023-09-18T14:39:48;3.45;;;1.58;;
39890;SDS011;25564;53.312;9.790;2023-09-18T14:42:20;3.72;;;1.40;;
39890;SDS011;25564;53.312;9.790;2023-09-18T14:44:51;4.82;;;1.58;;
39890;SDS011;25564;53.312;9.790;2023-09-18T14:47:23;7.07;;;1.40;;
39890;SDS011;25564;53.312;9.790;2023-09-18T14:49:55;3.40;;;1.67;;
39890;SDS011;25564;53.312;9.790;2023-09-18T14:52:27;4.50;;;1.30;;
39890;SDS011;25564;53.312;9.790;2023-09-18T14:54:58;5.00;;;1.40;;
39890;SDS011;25564;53.312;9.790;2023-09-18T14:57:34;4.07;;;1.20;;
39890;SDS011;25564;53.312;9.790;2023-09-18T15:00:06;1.92;;;1.10;;
39890;SDS011;25564;53.312;9.790;2023-09-18T15:02:38;4.47;;;1.67;;
39890;SDS011;25564;53.312;9.790;2023-09-18T15:05:10;4.60;;;1.30;;
39890;SDS011;25564;53.312;9.790;2023-09-18T15:07:44;4.20;;;1.55;;
39890;SDS011;25564;53.312;9.790;2023-09-18T15:10:15;2.30;;;1.20;;
39890;SDS011;25564;53.312;9.790;2023-09-18T15:12:47;2.13;;;1.65;;
39890;SDS011;25564;53.312;9.790;2023-09-18T15:15:18;3.17;;;1.63;;
39890;SDS011;25564;53.312;9.790;2023-09-18T15:17:50;2.70;;;1.20;;
39890;SDS011;25564;53.312;9.790;2023-09-18T15:20:25;6.22;;;1.27;;
39890;SDS011;25564;53.312;9.790;2023-09-18T15:22:57;2.97;;;1.58;;
39890;SDS011;25564;53.312;9.790;2023-09-18T15:25:29;2.70;;;1.77;;
39890;SDS011;25564;53.312;9.790;2023-09-18T15:28:00;3.78;;;1.48;;
39890;SDS011;25564;53.312;9.790;2023-09-18T15:30:32;4.60;;;1.50;;